Time;durP1;ratioP1;P1;durP2;ratioP2;P2;SDS_P1;SDS_P2;PMS_P1;PMS_P2;Temp;Humidity;BMP_temperature;BMP_pressure;BME280_temperature;BME280_humidity;BME280_pressure;Samples;Min_cycle;Max_cycle;Signal;HPM_P1;HPM_P2
2020/12/15 00:02:14;;;;;;;23.13;16.00;;;6.60;99.90;;;;;;5080070;28;20459;-91
2020/12/15 00:04:42;;;;;;;18.27;15.80;;;6.60;99.90;;;;;;5082304;28;20431;-92
2020/12/15 00:07:08;;;;;;;19.53;15.70;;;6.60;99.90;;;;;;5080528;28;20462;-91
2020/12/15 00:09:34;;;;;;;20.73;16.17;;;6.60;99.90;;;;;;5082086;28;20450;-92
2020/12/15 00:12:00;;;;;;;20.57;15.17;;;6.50;99.90;;;;;;5079546;28;20478;-92
2020/12/15 00:14:26;;;;;;;19.40;16.03;;;6.60;99.90;;;;;;5080786;28;20442;-91
2020/12/15 00:16:57;;;;;;;20.27;16.97;;;6.60;99.90;;;;;;5078860;28;20448;-91
2020/12/15 00:19:23;;;;;;;22.20;15.73;;;6.60;99.90;;;;;;5083574;28;20447;-91
2020/12/15 00:21:51;;;;;;;17.40;14.83;;;6.50;99.90;;;;;;5079466;28;20450;-92
2020/12/15 00:24:17;;;;;;;18.77;15.40;;;6.60;99.90;;;;;;5082446;28;20435;-92
2020/12/15 00:26:44;;;;;;;21.03;15.30;;;6.60;99.90;;;;;;5073919;28;20863;-91
2020/12/15 00:29:12;;;;;;;16.13;14.03;;;6.60;99.90;;;;;;5080810;28;20443;-91
2020/12/15 00:31:38;;;;;;;22.20;14.43;;;6.60;99.90;;;;;;5078601;28;20911;-91
2020/12/15 00:34:05;;;;;;;20.27;15.40;;;6.60;99.90;;;;;;5081262;28;20446;-92
2020/12/15 00:36:32;;;;;;;16.83;13.60;;;6.60;99.90;;;;;;5078884;28;20851;-91
2020/12/15 00:38:59;;;;;;;16.13;13.10;;;6.60;99.90;;;;;;5080267;28;20492;-91
2020/12/15 00:41:25;;;;;;;20.97;15.70;;;6.70;99.90;;;;;;5079078;28;20474;-90
2020/12/15 00:43:51;;;;;;;16.90;14.20;;;6.70;99.90;;;;;;5078833;28;20447;-91
2020/12/15 00:46:19;;;;;;;19.07;14.27;;;6.80;99.90;;;;;;5078960;28;20474;-90
2020/12/15 00:48:46;;;;;;;17.50;14.80;;;6.80;99.90;;;;;;5080968;28;20442;-91
2020/12/15 00:51:17;;;;;;;17.60;14.83;;;6.80;99.90;;;;;;5078836;28;20459;-92
2020/12/15 00:53:44;;;;;;;17.23;13.77;;;6.80;99.90;;;;;;5082157;28;20546;-92
2020/12/15 00:56:11;;;;;;;23.50;15.80;;;6.90;99.90;;;;;;5082703;28;20436;-92
2020/12/15 00:58:38;;;;;;;17.00;13.50;;;6.90;99.90;;;;;;5080886;28;20440;-92
2020/12/15 01:01:05;;;;;;;15.80;12.97;;;6.90;99.90;;;;;;5079685;28;20471;-92
2020/12/15 01:03:33;;;;;;;18.20;13.07;;;6.90;99.90;;;;;;5080205;28;20459;-91
2020/12/15 01:06:00;;;;;;;16.53;13.57;;;6.90;99.90;;;;;;5078846;28;20478;-92
2020/12/15 01:08:26;;;;;;;19.20;13.73;;;6.90;99.90;;;;;;5087443;28;20488;-92
2020/12/15 01:10:53;;;;;;;15.23;13.20;;;7.00;99.90;;;;;;5084528;28;20847;-91
2020/12/15 01:13:20;;;;;;;16.60;14.50;;;7.00;99.90;;;;;;5086430;28;20447;-91
2020/12/15 01:15:47;;;;;;;20.87;17.50;;;7.00;99.90;;;;;;5081939;28;20451;-91
2020/12/15 01:18:13;;;;;;;20.20;15.83;;;7.00;99.90;;;;;;5082033;28;20946;-91
2020/12/15 01:20:39;;;;;;;19.60;15.00;;;7.00;99.90;;;;;;5083505;28;20460;-92
2020/12/15 01:23:05;;;;;;;18.70;15.77;;;7.00;99.90;;;;;;5082235;28;20465;-92
2020/12/15 01:25:31;;;;;;;23.50;17.07;;;7.00;99.90;;;;;;5083427;28;20478;-91
2020/12/15 01:27:58;;;;;;;19.13;15.23;;;7.00;99.90;;;;;;5085010;28;20800;-91
2020/12/15 01:30:25;;;;;;;17.37;14.77;;;7.00;99.90;;;;;;5083975;28;20982;-91
2020/12/15 01:32:51;;;;;;;15.57;13.97;;;7.00;99.90;;;;;;5086643;28;20430;-92
2020/12/15 01:35:18;;;;;;;17.27;13.77;;;7.00;99.90;;;;;;5083493;28;20954;-91
2020/12/15 01:37:45;;;;;;;16.90;15.00;;;7.00;99.90;;;;;;5082860;28;20534;-91
2020/12/15 01:40:12;;;;;;;17.40;14.60;;;7.00;99.90;;;;;;5083681;28;20509;-91
2020/12/15 01:42:38;;;;;;;16.33;13.93;;;7.00;99.90;;;;;;5084070;28;20444;-90
2020/12/15 01:45:05;;;;;;;20.50;14.83;;;7.00;99.90;;;;;;5083282;28;20443;-90
2020/12/15 01:47:33;;;;;;;18.10;14.40;;;6.90;99.90;;;;;;5085331;28;20446;-92
2020/12/15 01:49:59;;;;;;;18.70;15.87;;;7.00;99.90;;;;;;5093164;28;20462;-92
2020/12/15 01:52:28;;;;;;;16.67;14.87;;;7.00;99.90;;;;;;5102740;28;20432;-91
2020/12/15 01:54:55;;;;;;;19.53;15.70;;;6.90;99.90;;;;;;5093733;28;20463;-90
2020/12/15 01:57:22;;;;;;;20.57;15.77;;;6.90;99.90;;;;;;5078394;28;20496;-91
2020/12/15 01:59:48;;;;;;;19.87;16.30;;;6.80;99.90;;;;;;5082808;28;20458;-92
2020/12/15 02:02:14;;;;;;;19.93;15.67;;;6.90;99.90;;;;;;5082839;28;20834;-92
2020/12/15 02:04:42;;;;;;;20.13;16.83;;;6.80;99.90;;;;;;5081611;28;20436;-91
2020/12/15 02:07:08;;;;;;;19.80;15.40;;;6.70;99.90;;;;;;5085397;28;20482;-91
2020/12/15 02:09:34;;;;;;;19.80;17.00;;;6.70;99.90;;;;;;5087360;28;20485;-92
2020/12/15 02:12:00;;;;;;;21.53;17.93;;;6.70;99.90;;;;;;5083051;28;20477;-92
2020/12/15 02:14:27;;;;;;;21.73;17.00;;;6.80;99.90;;;;;;5085898;28;20431;-91
2020/12/15 02:16:53;;;;;;;19.13;16.60;;;6.80;99.90;;;;;;5083449;28;20810;-91
2020/12/15 02:19:20;;;;;;;19.23;17.00;;;6.80;99.90;;;;;;5082550;28;20446;-91
2020/12/15 02:21:56;;;;;;;19.47;16.87;;;6.90;99.90;;;;;;5082564;28;20447;-90
2020/12/15 02:24:23;;;;;;;21.37;15.90;;;6.80;99.90;;;;;;5082431;28;20447;-92
2020/12/15 02:26:49;;;;;;;21.90;17.80;;;6.80;99.90;;;;;;5079511;28;20486;-91
2020/12/15 02:29:16;;;;;;;21.80;16.53;;;6.90;99.90;;;;;;5084882;28;20443;-91
2020/12/15 02:31:42;;;;;;;23.70;17.87;;;6.90;99.90;;;;;;5079664;28;20443;-92
2020/12/15 02:34:08;;;;;;;20.07;17.73;;;6.90;99.90;;;;;;5085065;28;20948;-92
2020/12/15 02:36:35;;;;;;;22.67;16.70;;;7.00;99.90;;;;;;5081733;28;20439;-92
2020/12/15 02:39:09;;;;;;;18.93;15.97;;;7.00;99.90;;;;;;5081937;28;20493;-92
2020/12/15 02:41:35;;;;;;;19.53;16.57;;;7.00;99.90;;;;;;5083519;28;20495;-91
2020/12/15 02:44:03;;;;;;;25.00;18.10;;;6.90;99.90;;;;;;5081880;28;20435;-91
2020/12/15 02:46:29;;;;;;;24.63;18.90;;;6.80;99.90;;;;;;5080916;28;20485;-91
2020/12/15 02:48:56;;;;;;;20.23;16.27;;;6.80;99.90;;;;;;5082889;28;20500;-92
2020/12/15 02:51:22;;;;;;;21.40;16.80;;;6.90;99.90;;;;;;5079080;28;20468;-90
2020/12/15 02:53:48;;;;;;;21.10;16.03;;;6.90;99.90;;;;;;5081167;28;20497;-91
2020/12/15 02:56:23;;;;;;;24.93;17.60;;;6.90;99.90;;;;;;5080291;28;20492;-91
2020/12/15 02:58:49;;;;;;;20.77;17.33;;;6.80;99.90;;;;;;5081970;28;20957;-92
2020/12/15 03:01:16;;;;;;;18.13;16.30;;;6.90;99.90;;;;;;5080757;28;20505;-91
2020/12/15 03:03:43;;;;;;;24.00;18.33;;;6.80;99.90;;;;;;5081070;28;20483;-92
2020/12/15 03:06:09;;;;;;;22.37;16.00;;;6.80;99.90;;;;;;5082041;28;20486;-90
2020/12/15 03:08:35;;;;;;;21.47;16.70;;;6.80;99.90;;;;;;5079399;28;20448;-91
2020/12/15 03:11:02;;;;;;;20.60;16.50;;;6.90;99.90;;;;;;5083069;28;20995;-92
2020/12/15 03:13:29;;;;;;;18.20;15.70;;;6.90;99.90;;;;;;5080385;28;20442;-92
2020/12/15 03:15:55;;;;;;;18.37;15.03;;;7.00;99.90;;;;;;5081848;28;20431;-91
2020/12/15 03:18:21;;;;;;;18.53;16.23;;;7.00;99.90;;;;;;5078281;28;20435;-91
2020/12/15 03:20:48;;;;;;;17.90;14.13;;;7.00;99.90;;;;;;5081982;28;20814;-91
2020/12/15 03:23:16;;;;;;;16.90;13.87;;;6.90;99.90;;;;;;5081660;28;20447;-91
2020/12/15 03:25:42;;;;;;;16.63;13.23;;;6.80;99.90;;;;;;5080069;28;20517;-91
2020/12/15 03:28:08;;;;;;;19.53;15.20;;;6.90;99.90;;;;;;5081555;28;20823;-91
2020/12/15 03:30:36;;;;;;;22.13;18.60;;;6.80;99.90;;;;;;5083437;28;20466;-89
2020/12/15 03:33:03;;;;;;;22.93;19.53;;;6.80;99.90;;;;;;5080897;28;20819;-93
2020/12/15 03:35:32;;;;;;;23.10;20.53;;;6.80;99.90;;;;;;5081974;28;20505;-91
2020/12/15 03:37:59;;;;;;;22.47;20.03;;;6.80;99.90;;;;;;5081883;28;20952;-91
2020/12/15 03:40:25;;;;;;;22.60;20.30;;;6.80;99.90;;;;;;5084249;28;20865;-92
2020/12/15 03:42:51;;;;;;;23.90;21.50;;;6.90;99.90;;;;;;5076808;28;20441;-91
2020/12/15 03:45:17;;;;;;;22.10;19.80;;;6.80;99.90;;;;;;5080675;28;20477;-91
2020/12/15 03:47:45;;;;;;;22.23;19.90;;;6.80;99.90;;;;;;5078508;28;20447;-91
2020/12/15 03:50:11;;;;;;;22.53;20.20;;;6.80;99.90;;;;;;5085345;28;20447;-91
2020/12/15 03:52:37;;;;;;;22.50;19.83;;;6.90;99.90;;;;;;5078240;28;20850;-92
2020/12/15 03:55:04;;;;;;;22.63;20.30;;;7.00;99.90;;;;;;5082309;28;20439;-92
2020/12/15 03:57:31;;;;;;;23.07;20.77;;;7.00;99.90;;;;;;5080729;28;20451;-92
2020/12/15 03:59:57;;;;;;;19.57;17.57;;;6.90;99.90;;;;;;5082844;28;20469;-92
2020/12/15 04:02:23;;;;;;;18.00;14.77;;;7.00;99.90;;;;;;5079940;28;20923;-92
2020/12/15 04:04:50;;;;;;;14.67;12.30;;;7.00;99.90;;;;;;5081316;28;20433;-92
2020/12/15 04:07:16;;;;;;;11.83;10.63;;;7.00;99.90;;;;;;5080554;28;20515;-92
2020/12/15 04:09:43;;;;;;;14.33;10.63;;;7.00;99.90;;;;;;5104659;28;20447;-92
2020/12/15 04:12:11;;;;;;;11.20;9.53;;;6.90;99.90;;;;;;5084501;28;20947;-92
2020/12/15 04:14:38;;;;;;;12.13;10.77;;;7.00;99.90;;;;;;5078265;28;20793;-89
2020/12/15 04:17:04;;;;;;;11.90;10.57;;;7.00;99.90;;;;;;5079515;28;20509;-91
2020/12/15 04:19:30;;;;;;;14.00;10.73;;;7.00;99.90;;;;;;5081489;28;20502;-91
2020/12/15 04:21:57;;;;;;;14.03;11.23;;;7.00;99.90;;;;;;5081139;28;20497;-92
2020/12/15 04:24:23;;;;;;;11.53;10.33;;;7.10;99.90;;;;;;5078904;28;20453;-90
2020/12/15 04:26:49;;;;;;;13.37;11.47;;;7.10;99.90;;;;;;5081890;28;20847;-91
2020/12/15 04:29:15;;;;;;;12.80;11.40;;;7.10;99.90;;;;;;5078632;28;20478;-91
2020/12/15 04:31:41;;;;;;;14.13;12.13;;;7.00;99.90;;;;;;5081220;28;20438;-90
2020/12/15 04:34:08;;;;;;;13.43;12.10;;;7.00;99.90;;;;;;5077623;28;20453;-91
2020/12/15 04:36:34;;;;;;;19.93;12.50;;;6.90;99.90;;;;;;5081909;28;20447;-91
2020/12/15 04:39:01;;;;;;;17.27;13.50;;;7.00;99.90;;;;;;5081866;28;20446;-92
2020/12/15 04:41:27;;;;;;;13.83;12.43;;;6.90;99.90;;;;;;5079296;28;20514;-91
2020/12/15 04:43:54;;;;;;;13.53;12.13;;;7.00;99.90;;;;;;5077166;28;20443;-91
2020/12/15 04:46:22;;;;;;;15.20;13.67;;;7.00;99.90;;;;;;5081673;28;20507;-90
2020/12/15 04:48:58;;;;;;;11.77;10.57;;;7.00;99.90;;;;;;5082469;28;20493;-90
2020/12/15 04:51:27;;;;;;;11.03;9.90;;;7.00;99.90;;;;;;5078513;28;20470;-91
2020/12/15 04:53:54;;;;;;;12.00;10.30;;;6.90;99.90;;;;;;5077651;28;20448;-91
2020/12/15 04:56:27;;;;;;;13.33;10.60;;;6.90;99.90;;;;;;5081996;28;20517;-90
2020/12/15 04:58:57;;;;;;;12.27;11.03;;;7.00;99.90;;;;;;5076943;28;20446;-89
2020/12/15 05:01:23;;;;;;;15.10;10.80;;;6.90;99.90;;;;;;5082970;28;20724;-90
2020/12/15 05:03:52;;;;;;;10.30;9.30;;;7.00;99.90;;;;;;5077217;28;20443;-90
2020/12/15 05:06:26;;;;;;;15.00;11.43;;;7.00;99.90;;;;;;5081837;28;20483;-91
2020/12/15 05:08:52;;;;;;;13.20;10.80;;;7.00;99.90;;;;;;5079192;28;20534;-89
2020/12/15 05:11:18;;;;;;;12.43;11.23;;;7.00;99.90;;;;;;5081456;28;20467;-90
2020/12/15 05:13:46;;;;;;;11.87;10.50;;;7.00;99.90;;;;;;5079327;28;20439;-93
2020/12/15 05:16:12;;;;;;;13.80;12.13;;;7.10;99.90;;;;;;5079065;28;20879;-90
2020/12/15 05:18:38;;;;;;;15.73;12.73;;;7.10;99.90;;;;;;5079019;28;20492;-92
2020/12/15 05:21:19;;;;;;;12.50;11.13;;;7.10;99.90;;;;;;5080415;28;21290;-91
2020/12/15 05:23:54;;;;;;;12.10;10.40;;;7.10;99.90;;;;;;5079468;28;20463;-92
2020/12/15 05:26:24;;;;;;;12.10;10.80;;;7.10;99.90;;;;;;5080975;28;20482;-91
2020/12/15 05:29:02;;;;;;;11.07;9.40;;;7.10;99.90;;;;;;5080580;28;20522;-91
2020/12/15 05:31:28;;;;;;;14.23;11.23;;;7.10;99.90;;;;;;5076664;28;20470;-92
2020/12/15 05:33:57;;;;;;;12.03;9.60;;;7.00;99.90;;;;;;5079732;28;20485;-92
2020/12/15 05:36:23;;;;;;;13.30;10.43;;;7.10;99.90;;;;;;5079003;28;20466;-91
2020/12/15 05:39:05;;;;;;;13.30;11.13;;;7.10;99.90;;;;;;5079575;28;20444;-91
2020/12/15 05:41:32;;;;;;;9.43;8.53;;;7.10;99.90;;;;;;5077460;28;20462;-88
2020/12/15 05:43:59;;;;;;;11.20;8.93;;;7.20;99.90;;;;;;5079490;28;20533;-91
2020/12/15 05:46:28;;;;;;;10.57;9.30;;;7.20;99.90;;;;;;5080392;28;20475;-91
2020/12/15 05:49:01;;;;;;;12.60;10.57;;;7.30;99.90;;;;;;5077844;28;20818;-90
2020/12/15 05:51:40;;;;;;;15.50;11.27;;;7.30;99.90;;;;;;5074776;28;20466;-91
2020/12/15 05:54:07;;;;;;;14.63;11.83;;;7.30;99.90;;;;;;5083883;28;20438;-91
2020/12/15 05:56:36;;;;;;;22.73;11.60;;;7.30;99.90;;;;;;5081456;28;20443;-90
2020/12/15 05:59:14;;;;;;;15.80;12.40;;;7.30;99.90;;;;;;5083729;28;21000;-90
2020/12/15 06:01:41;;;;;;;14.17;12.67;;;7.20;99.90;;;;;;5081283;28;20479;-93
2020/12/15 06:04:07;;;;;;;17.67;12.13;;;7.20;99.90;;;;;;5084049;28;20457;-91
2020/12/15 06:06:36;;;;;;;18.67;13.83;;;7.30;99.90;;;;;;5082196;28;20863;-91
2020/12/15 06:09:02;;;;;;;17.60;13.47;;;7.30;99.90;;;;;;5083320;28;20989;-90
2020/12/15 06:11:33;;;;;;;17.27;12.43;;;7.30;99.90;;;;;;5082552;28;20463;-90
2020/12/15 06:14:02;;;;;;;21.13;11.97;;;7.30;99.90;;;;;;5083025;28;20512;-92
2020/12/15 06:16:28;;;;;;;17.00;12.10;;;7.30;99.90;;;;;;5081717;28;20525;-90
2020/12/15 06:18:56;;;;;;;16.10;11.60;;;7.40;99.90;;;;;;5082343;28;20943;-91
2020/12/15 06:21:23;;;;;;;14.30;11.70;;;7.40;99.90;;;;;;5085261;28;20474;-91
2020/12/15 06:23:58;;;;;;;13.17;11.33;;;7.40;99.90;;;;;;5087423;28;20455;-90
2020/12/15 06:26:25;;;;;;;11.20;9.50;;;7.30;99.90;;;;;;5097799;28;20470;-91
2020/12/15 06:28:57;;;;;;;15.10;11.50;;;7.40;99.90;;;;;;5087661;28;20439;-91
2020/12/15 06:31:24;;;;;;;12.20;10.47;;;7.30;99.90;;;;;;5082223;28;20561;-90
2020/12/15 06:33:55;;;;;;;13.33;10.07;;;7.30;99.90;;;;;;5074119;28;20443;-90
2020/12/15 06:36:29;;;;;;;13.70;11.13;;;7.20;99.90;;;;;;5073432;28;20966;-89
2020/12/15 06:38:55;;;;;;;12.90;10.57;;;7.20;99.90;;;;;;5055139;28;20457;-89
2020/12/15 06:41:23;;;;;;;12.50;10.00;;;7.20;99.90;;;;;;5058896;28;20880;-90
2020/12/15 06:43:49;;;;;;;20.53;10.30;;;7.20;99.90;;;;;;5072823;28;20496;-90
2020/12/15 06:46:15;;;;;;;13.27;10.77;;;7.20;99.90;;;;;;5071617;28;20858;-90
2020/12/15 06:48:44;;;;;;;12.97;11.30;;;7.20;99.90;;;;;;5078935;28;20457;-91
2020/12/15 06:51:12;;;;;;;13.70;11.30;;;7.20;99.90;;;;;;5080205;28;20557;-90
2020/12/15 06:53:39;;;;;;;16.27;12.53;;;7.30;99.90;;;;;;5082778;28;20447;-91
2020/12/15 06:56:06;;;;;;;18.93;12.77;;;7.30;99.90;;;;;;5079526;28;20863;-90
2020/12/15 06:58:33;;;;;;;20.00;14.37;;;7.30;99.90;;;;;;5078839;28;20519;-91
2020/12/15 07:01:02;;;;;;;16.03;12.50;;;7.30;99.90;;;;;;5080485;28;21189;-90
2020/12/15 07:03:35;;;;;;;14.77;11.37;;;7.40;99.90;;;;;;5080939;28;20455;-90
2020/12/15 07:06:09;;;;;;;18.30;11.33;;;7.40;99.90;;;;;;5078809;28;20471;-90
2020/12/15 07:08:36;;;;;;;15.10;11.33;;;7.30;99.90;;;;;;5079031;28;20589;-89
2020/12/15 07:11:03;;;;;;;15.03;11.57;;;7.30;99.90;;;;;;5071079;28;20471;-89
2020/12/15 07:13:29;;;;;;;16.40;13.50;;;7.30;99.90;;;;;;5078162;28;21893;-88
2020/12/15 07:15:56;;;;;;;16.50;12.87;;;7.30;99.90;;;;;;5081482;28;20456;-87
2020/12/15 07:18:22;;;;;;;19.47;12.10;;;7.30;99.90;;;;;;5090014;28;20446;-87
2020/12/15 07:20:49;;;;;;;16.57;12.83;;;7.30;99.90;;;;;;5077379;28;20972;-91
2020/12/15 07:23:16;;;;;;;13.73;12.03;;;7.20;99.90;;;;;;5082511;28;20458;-92
2020/12/15 07:25:44;;;;;;;15.97;13.70;;;7.20;99.90;;;;;;5073846;28;20534;-91
2020/12/15 07:28:11;;;;;;;17.30;12.70;;;7.20;99.90;;;;;;5073006;28;20439;-91
2020/12/15 07:30:38;;;;;;;15.00;12.90;;;7.20;99.90;;;;;;5063164;28;20922;-91
2020/12/15 07:33:04;;;;;;;15.57;13.97;;;7.20;99.90;;;;;;5052715;28;20574;-89
2020/12/15 07:35:31;;;;;;;19.23;13.00;;;7.20;99.90;;;;;;5059643;28;20447;-91
2020/12/15 07:37:58;;;;;;;16.33;11.50;;;7.20;99.90;;;;;;5072332;28;20444;-92
2020/12/15 07:40:28;;;;;;;16.00;12.90;;;7.20;99.90;;;;;;5066415;28;20476;-91
2020/12/15 07:42:56;;;;;;;19.50;11.73;;;7.20;99.90;;;;;;5052723;28;20475;-91
2020/12/15 07:45:23;;;;;;;14.20;12.00;;;7.20;99.90;;;;;;5058233;28;20513;-91
2020/12/15 07:47:51;;;;;;;17.87;13.77;;;7.20;99.90;;;;;;5072874;28;20493;-92
2020/12/15 07:50:17;;;;;;;22.13;13.60;;;7.20;99.90;;;;;;5072178;28;20497;-91
2020/12/15 07:52:43;;;;;;;17.77;13.20;;;7.10;99.90;;;;;;5072575;28;20955;-92
2020/12/15 07:55:11;;;;;;;17.13;12.43;;;7.20;99.90;;;;;;5068397;28;20447;-92
2020/12/15 07:57:39;;;;;;;18.80;13.40;;;7.20;99.90;;;;;;5052071;28;20467;-90
2020/12/15 08:00:11;;;;;;;17.30;13.40;;;7.20;99.90;;;;;;5072125;28;20489;-90
2020/12/15 08:02:38;;;;;;;15.10;12.70;;;7.30;99.90;;;;;;5071645;28;20444;-92
2020/12/15 08:05:13;;;;;;;15.67;12.73;;;7.30;99.90;;;;;;5071876;28;20454;-90
2020/12/15 08:07:46;;;;;;;15.00;13.37;;;7.30;99.90;;;;;;5070920;28;20895;-91
2020/12/15 08:10:13;;;;;;;14.73;10.50;;;7.30;99.90;;;;;;5052429;28;20464;-91
2020/12/15 08:12:41;;;;;;;16.37;11.50;;;7.30;99.90;;;;;;5071421;28;20569;-90
2020/12/15 08:15:09;;;;;;;13.93;10.30;;;7.30;99.90;;;;;;5072267;28;20455;-88
2020/12/15 08:17:38;;;;;;;12.70;10.40;;;7.40;99.90;;;;;;5070238;28;20550;-90
2020/12/15 08:20:06;;;;;;;10.80;9.70;;;7.40;99.90;;;;;;5066763;28;20461;-89
2020/12/15 08:22:38;;;;;;;11.57;10.37;;;7.40;99.90;;;;;;5064318;28;20452;-90
2020/12/15 08:25:05;;;;;;;12.20;10.93;;;7.40;99.90;;;;;;5058502;28;20530;-90
2020/12/15 08:27:34;;;;;;;11.87;10.67;;;7.50;99.90;;;;;;5051237;28;20483;-89
2020/12/15 08:30:00;;;;;;;12.17;10.10;;;7.60;99.90;;;;;;5051237;28;20999;-88
2020/12/15 08:32:30;;;;;;;15.10;11.03;;;7.60;99.90;;;;;;5051577;28;20444;-89
2020/12/15 08:35:01;;;;;;;12.90;10.63;;;7.60;99.90;;;;;;5051990;28;20445;-89
2020/12/15 08:37:27;;;;;;;16.63;10.90;;;7.60;99.90;;;;;;5051763;28;20444;-90
2020/12/15 08:39:55;;;;;;;15.80;12.80;;;7.60;99.90;;;;;;5081969;28;20474;-88
2020/12/15 08:42:21;;;;;;;17.30;12.83;;;7.70;99.90;;;;;;5091028;28;20440;-89
2020/12/15 08:44:48;;;;;;;18.10;12.67;;;7.70;99.90;;;;;;5051866;28;20444;-89
2020/12/15 08:47:17;;;;;;;14.67;11.63;;;7.60;99.90;;;;;;5051877;28;20519;-89
2020/12/15 08:49:45;;;;;;;14.57;10.23;;;7.70;99.90;;;;;;5069426;28;20520;-89
2020/12/15 08:52:20;;;;;;;13.80;11.87;;;7.70;99.90;;;;;;5072546;28;20451;-91
2020/12/15 08:54:46;;;;;;;15.87;11.13;;;7.70;99.90;;;;;;5052407;28;20452;-88
2020/12/15 08:57:14;;;;;;;14.43;12.40;;;7.80;99.90;;;;;;5051854;28;20448;-89
2020/12/15 08:59:40;;;;;;;17.23;11.30;;;7.70;99.90;;;;;;5068487;28;20472;-89
2020/12/15 09:02:07;;;;;;;15.47;12.60;;;7.70;99.90;;;;;;5071585;28;21045;-88
2020/12/15 09:04:33;;;;;;;18.77;12.23;;;7.70;99.90;;;;;;5069696;28;20455;-88
2020/12/15 09:07:11;;;;;;;17.53;13.80;;;7.80;99.90;;;;;;5070779;28;20570;-88
2020/12/15 09:09:37;;;;;;;15.70;11.40;;;7.80;99.90;;;;;;5052818;28;20459;-89
2020/12/15 09:12:03;;;;;;;13.07;11.13;;;7.90;99.90;;;;;;5051423;28;20448;-87
2020/12/15 09:14:29;;;;;;;22.93;11.77;;;7.80;99.90;;;;;;5067557;28;20458;-88
2020/12/15 09:16:55;;;;;;;13.30;11.20;;;7.90;99.90;;;;;;5070784;28;20435;-88
2020/12/15 09:19:23;;;;;;;15.23;10.70;;;8.00;99.90;;;;;;5054898;28;20448;-88
2020/12/15 09:21:57;;;;;;;14.93;12.27;;;8.00;99.90;;;;;;5050908;28;20502;-89
2020/12/15 09:24:24;;;;;;;15.40;12.37;;;8.00;99.90;;;;;;5066128;28;20520;-87
2020/12/15 09:26:50;;;;;;;15.87;12.23;;;8.00;99.90;;;;;;5070412;28;20479;-87
2020/12/15 09:29:17;;;;;;;14.33;12.50;;;8.00;99.90;;;;;;5059698;28;20444;-87
2020/12/15 09:31:50;;;;;;;13.37;11.93;;;8.10;99.90;;;;;;5055402;28;20467;-89
2020/12/15 09:34:16;;;;;;;17.57;11.03;;;8.10;99.90;;;;;;5070124;28;20447;-88
2020/12/15 09:36:42;;;;;;;14.90;11.53;;;8.10;99.90;;;;;;5074769;28;20448;-88
2020/12/15 09:39:08;;;;;;;14.13;11.83;;;8.10;99.90;;;;;;5061496;28;20444;-88
2020/12/15 09:41:36;;;;;;;13.90;12.40;;;8.10;99.90;;;;;;5055877;28;20491;-87
2020/12/15 09:44:02;;;;;;;18.70;10.90;;;8.20;99.90;;;;;;5067062;28;20538;-87
2020/12/15 09:46:28;;;;;;;14.80;12.40;;;8.10;99.90;;;;;;5074363;28;20482;-88
2020/12/15 09:48:55;;;;;;;14.03;12.33;;;8.20;99.90;;;;;;5063115;28;20582;-88
2020/12/15 09:51:21;;;;;;;19.63;12.90;;;8.10;99.90;;;;;;5054724;28;20464;-87
2020/12/15 09:53:47;;;;;;;22.00;13.67;;;8.20;99.90;;;;;;5064451;28;20439;-88
2020/12/15 09:56:16;;;;;;;14.10;12.53;;;8.20;99.90;;;;;;5074264;28;20447;-87
2020/12/15 09:58:43;;;;;;;15.77;12.07;;;8.20;99.90;;;;;;5064666;28;20524;-88
2020/12/15 10:01:09;;;;;;;17.30;12.07;;;8.20;99.90;;;;;;5066116;28;20463;-89
2020/12/15 10:03:35;;;;;;;14.10;11.80;;;8.30;99.90;;;;;;5081803;28;20459;-89
2020/12/15 10:06:02;;;;;;;18.00;12.50;;;8.30;99.90;;;;;;5080566;28;20449;-88
2020/12/15 10:08:28;;;;;;;15.37;11.83;;;8.30;99.90;;;;;;5062860;28;20879;-90
2020/12/15 10:10:54;;;;;;;16.60;12.53;;;8.20;99.90;;;;;;5073160;28;20459;-89
2020/12/15 10:13:20;;;;;;;16.73;11.77;;;8.30;99.90;;;;;;5077477;28;20447;-89
2020/12/15 10:15:47;;;;;;;14.97;12.80;;;8.30;99.90;;;;;;5062617;28;20452;-90
2020/12/15 10:18:14;;;;;;;16.53;13.70;;;8.40;99.90;;;;;;5056387;28;20460;-87
2020/12/15 10:20:40;;;;;;;17.83;13.50;;;8.30;99.90;;;;;;5065710;28;20529;-88
2020/12/15 10:23:06;;;;;;;19.30;13.50;;;8.40;99.90;;;;;;5076060;28;20432;-88
2020/12/15 10:25:32;;;;;;;15.50;11.63;;;8.50;99.90;;;;;;5066189;28;20449;-89
2020/12/15 10:27:59;;;;;;;12.93;11.63;;;8.40;99.90;;;;;;5055657;28;20526;-89
2020/12/15 10:30:25;;;;;;;18.40;12.53;;;8.50;99.90;;;;;;5064110;28;20467;-90
2020/12/15 10:32:52;;;;;;;18.03;11.43;;;8.50;99.90;;;;;;5074562;28;20904;-89
2020/12/15 10:35:19;;;;;;;17.97;12.03;;;8.60;99.90;;;;;;5065369;28;20445;-88
2020/12/15 10:37:45;;;;;;;15.10;11.83;;;8.70;99.90;;;;;;5053488;28;20941;-87
2020/12/15 10:40:11;;;;;;;16.53;11.90;;;8.70;99.90;;;;;;5052982;28;21011;-89
2020/12/15 10:42:38;;;;;;;17.87;13.27;;;8.80;99.90;;;;;;5053400;28;20444;-87
2020/12/15 10:45:04;;;;;;;23.83;11.97;;;8.90;99.90;;;;;;5058695;28;20955;-89
2020/12/15 10:47:31;;;;;;;20.00;12.60;;;9.00;99.90;;;;;;5076246;28;20486;-90
2020/12/15 10:49:58;;;;;;;19.70;14.37;;;9.10;99.90;;;;;;5073475;28;20533;-90
2020/12/15 10:52:24;;;;;;;17.80;12.03;;;9.10;99.90;;;;;;5054888;28;20447;-89
2020/12/15 10:54:50;;;;;;;19.67;13.40;;;9.20;99.90;;;;;;5058746;28;20448;-89
2020/12/15 10:57:16;;;;;;;13.80;10.80;;;9.30;99.90;;;;;;5077404;28;20444;-90
2020/12/15 10:59:42;;;;;;;14.77;13.20;;;9.30;99.90;;;;;;5088275;28;20459;-89
2020/12/15 11:02:09;;;;;;;16.10;11.70;;;9.30;99.90;;;;;;5084984;28;20948;-89
2020/12/15 11:04:36;;;;;;;13.70;11.10;;;9.20;99.90;;;;;;5072593;28;20478;-89
2020/12/15 11:07:03;;;;;;;14.83;13.30;;;9.20;99.90;;;;;;5053930;28;21019;-88
2020/12/15 11:09:29;;;;;;;14.77;12.90;;;9.40;99.90;;;;;;5053828;28;20454;-89
2020/12/15 11:11:55;;;;;;;13.57;10.37;;;9.40;99.90;;;;;;5072894;28;20501;-89
2020/12/15 11:14:21;;;;;;;14.90;11.70;;;9.40;99.90;;;;;;5073603;28;20959;-89
2020/12/15 11:16:48;;;;;;;16.20;12.00;;;9.40;99.90;;;;;;5054679;28;20455;-89
2020/12/15 11:19:14;;;;;;;14.40;10.57;;;9.30;99.90;;;;;;5055259;28;20453;-91
2020/12/15 11:21:40;;;;;;;13.93;11.27;;;9.30;99.90;;;;;;5054365;28;20479;-90
2020/12/15 11:24:07;;;;;;;12.60;11.30;;;9.20;99.90;;;;;;5054217;28;20482;-90
2020/12/15 11:26:33;;;;;;;12.97;11.47;;;9.30;99.90;;;;;;5055688;28;20488;-90
2020/12/15 11:28:59;;;;;;;12.40;11.10;;;9.40;99.90;;;;;;5065318;28;20452;-91
2020/12/15 11:31:25;;;;;;;14.47;12.40;;;9.50;99.90;;;;;;5075377;28;20506;-91
2020/12/15 11:33:52;;;;;;;13.00;11.03;;;9.50;99.90;;;;;;5075480;28;20455;-90
2020/12/15 11:36:19;;;;;;;13.50;11.30;;;9.50;99.90;;;;;;5077239;28;20462;-94
2020/12/15 11:38:45;;;;;;;11.90;10.70;;;9.50;99.90;;;;;;5068093;28;20440;-93
2020/12/15 11:41:12;;;;;;;12.20;11.00;;;9.50;99.90;;;;;;5055869;28;20460;-90
2020/12/15 11:43:38;;;;;;;15.90;11.80;;;9.60;99.90;;;;;;5064291;28;20456;-90
2020/12/15 11:46:04;;;;;;;12.73;11.53;;;9.60;99.90;;;;;;5060471;28;20444;-91
2020/12/15 11:48:31;;;;;;;16.87;12.23;;;9.70;99.90;;;;;;5059101;28;20447;-90
2020/12/15 11:50:57;;;;;;;16.57;11.23;;;9.70;99.90;;;;;;5072048;28;20463;-91
2020/12/15 11:53:23;;;;;;;12.70;11.40;;;9.70;99.90;;;;;;5067608;28;20456;-90
2020/12/15 11:55:49;;;;;;;12.33;11.00;;;9.80;99.90;;;;;;5052359;28;20448;-89
2020/12/15 11:58:16;;;;;;;16.37;11.43;;;9.90;99.90;;;;;;5055708;28;20473;-91
2020/12/15 12:00:42;;;;;;;15.23;11.60;;;10.00;99.90;;;;;;5072080;28;20469;-89
2020/12/15 12:03:08;;;;;;;15.87;12.70;;;10.00;99.90;;;;;;5069326;28;20459;-90
2020/12/15 12:05:34;;;;;;;17.17;13.63;;;10.10;99.90;;;;;;5053827;28;20440;-90
2020/12/15 12:08:01;;;;;;;14.67;12.70;;;10.10;99.90;;;;;;5055064;28;20480;-89
2020/12/15 12:10:27;;;;;;;18.13;14.03;;;10.10;99.90;;;;;;5073234;28;20540;-89
2020/12/15 12:12:53;;;;;;;17.63;13.90;;;10.10;99.90;;;;;;5074727;28;20459;-90
2020/12/15 12:15:21;;;;;;;16.73;12.07;;;10.10;99.90;;;;;;5074233;28;20451;-90
2020/12/15 12:17:47;;;;;;;19.50;14.60;;;10.00;99.90;;;;;;5072147;28;20519;-91
2020/12/15 12:20:13;;;;;;;18.37;15.03;;;10.10;99.90;;;;;;5052287;28;20468;-91
2020/12/15 12:22:39;;;;;;;15.27;13.43;;;10.20;99.90;;;;;;5052937;28;20963;-90
2020/12/15 12:25:05;;;;;;;16.33;13.30;;;10.20;99.90;;;;;;5071917;28;20451;-90
2020/12/15 12:27:32;;;;;;;19.83;14.30;;;10.10;99.90;;;;;;5071852;28;20485;-90
2020/12/15 12:29:58;;;;;;;17.53;12.40;;;10.10;99.90;;;;;;5051895;28;20506;-90
2020/12/15 12:32:25;;;;;;;19.87;13.60;;;10.00;99.90;;;;;;5051610;28;20456;-90
2020/12/15 12:34:51;;;;;;;15.60;12.80;;;10.00;99.90;;;;;;5069497;28;20451;-89
2020/12/15 12:37:17;;;;;;;15.53;12.63;;;10.00;99.90;;;;;;5071629;28;21011;-90